Time;durP1;ratioP1;P1;durP2;ratioP2;P2;SDS_P1;SDS_P2;PMS_P1;PMS_P2;Temp;Humidity;BMP_temperature;BMP_pressure;BME280_temperature;BME280_humidity;BME280_pressure;Samples;Min_cycle;Max_cycle;Signal;HPM_P1;HPM_P2
2023/02/21 02:13:53;;;;;;;9.48;6.78;;;;;;;;;;10367803;28;20029;-66
2023/02/21 02:19:41;;;;;;;10.75;7.20;;;;;;;;;;10367715;28;20030;-72
2023/02/21 02:25:24;;;;;;;9.97;6.90;;;;;;;;;;10339678;28;20046;-66
2023/02/21 02:30:50;;;;;;;14.32;7.18;;;;;;;;;;10354303;28;20448;-69
2023/02/21 02:35:58;;;;;;;11.90;7.30;;;;;;;;;;10349748;28;20494;-67
2023/02/21 02:41:10;;;;;;;10.15;6.88;;;;;;;;;;10367530;28;20370;-66
2023/02/21 02:46:32;;;;;;;8.02;6.43;;;;;;;;;;10366615;28;20102;-66
2023/02/21 02:51:34;;;;;;;11.88;7.60;;;;;;;;;;10359108;28;20030;-65
2023/02/21 02:56:35;;;;;;;15.68;7.13;;;;;;;;;;10367106;28;20116;-65
2023/02/21 03:01:48;;;;;;;10.50;6.75;;;;;;;;;;10367126;28;20033;-66
2023/02/21 03:07:33;;;;;;;8.85;7.10;;;;;;;;;;10366597;28;20029;-65
2023/02/21 03:13:11;;;;;;;10.55;7.15;;;;;;;;;;10366677;28;20040;-66
2023/02/21 03:18:25;;;;;;;10.20;7.07;;;;;;;;;;10360559;28;20018;-71
2023/02/21 03:23:30;;;;;;;8.48;6.95;;;;;;;;;;10365481;28;20088;-66
2023/02/21 03:28:31;;;;;;;10.35;6.70;;;;;;;;;;10352969;28;20030;-67
2023/02/21 03:33:32;;;;;;;8.50;7.03;;;;;;;;;;10364742;28;20416;-65
2023/02/21 03:38:34;;;;;;;8.90;7.13;;;;;;;;;;10364513;28;20053;-68
2023/02/21 03:43:34;;;;;;;9.93;7.35;;;;;;;;;;10365677;28;20022;-67
2023/02/21 03:48:35;;;;;;;8.68;6.47;;;;;;;;;;10369905;28;20029;-67
2023/02/21 03:53:36;;;;;;;10.57;6.60;;;;;;;;;;10372395;28;20048;-65
2023/02/21 03:58:36;;;;;;;9.95;7.13;;;;;;;;;;10373392;28;20042;-71
2023/02/21 04:03:37;;;;;;;11.57;7.22;;;;;;;;;;10373362;28;20034;-70
2023/02/21 04:08:38;;;;;;;8.65;6.28;;;;;;;;;;10388672;28;20029;-72
2023/02/21 04:13:38;;;;;;;10.00;6.75;;;;;;;;;;10373589;28;20029;-74
2023/02/21 04:18:39;;;;;;;9.10;6.30;;;;;;;;;;10372837;28;20381;-69
2023/02/21 04:23:39;;;;;;;9.38;6.68;;;;;;;;;;10372693;28;20425;-66
2023/02/21 04:28:40;;;;;;;8.60;6.50;;;;;;;;;;10360642;28;20399;-70
2023/02/21 04:33:41;;;;;;;12.93;6.78;;;;;;;;;;10372614;28;20450;-70
2023/02/21 04:38:41;;;;;;;9.85;6.55;;;;;;;;;;10370909;28;20401;-70
2023/02/21 04:43:43;;;;;;;9.25;6.60;;;;;;;;;;10372064;28;20037;-65
2023/02/21 04:48:45;;;;;;;9.07;6.90;;;;;;;;;;10372287;28;20452;-68
2023/02/21 04:53:47;;;;;;;8.65;6.68;;;;;;;;;;10370697;28;20108;-71
2023/02/21 04:58:48;;;;;;;9.32;6.88;;;;;;;;;;10371139;28;20120;-70
2023/02/21 05:03:49;;;;;;;9.00;6.93;;;;;;;;;;10371287;28;20033;-66
2023/02/21 05:08:50;;;;;;;8.15;6.50;;;;;;;;;;10371149;28;20041;-69
2023/02/21 05:13:51;;;;;;;8.93;6.97;;;;;;;;;;10371019;28;20038;-65
2023/02/21 05:18:52;;;;;;;12.15;7.15;;;;;;;;;;10370689;28;20022;-71
2023/02/21 05:23:55;;;;;;;10.02;7.70;;;;;;;;;;10370612;28;20385;-66
2023/02/21 05:28:56;;;;;;;12.93;7.90;;;;;;;;;;10361255;28;20029;-66
2023/02/21 05:33:57;;;;;;;9.43;6.97;;;;;;;;;;10370071;28;20018;-66
2023/02/21 05:38:57;;;;;;;9.90;7.20;;;;;;;;;;10370409;28;20085;-66
2023/02/21 05:43:59;;;;;;;9.57;7.10;;;;;;;;;;10370415;28;20032;-66
2023/02/21 05:49:02;;;;;;;9.38;7.22;;;;;;;;;;10369690;28;20036;-67
2023/02/21 05:54:05;;;;;;;9.15;7.20;;;;;;;;;;10369075;28;20022;-67
2023/02/21 05:59:06;;;;;;;12.07;6.82;;;;;;;;;;10369098;28;20367;-66
2023/02/21 06:04:07;;;;;;;8.93;6.75;;;;;;;;;;10359836;28;20044;-67
2023/02/21 06:09:17;;;;;;;9.10;6.90;;;;;;;;;;10368065;28;20026;-67
2023/02/21 06:14:19;;;;;;;9.20;6.72;;;;;;;;;;10366958;28;20037;-66
2023/02/21 06:19:20;;;;;;;11.57;6.95;;;;;;;;;;10368160;28;20474;-66
2023/02/21 06:24:21;;;;;;;10.65;7.07;;;;;;;;;;10366901;28;20088;-69
2023/02/21 06:29:22;;;;;;;9.15;6.32;;;;;;;;;;10359223;28;20030;-68
2023/02/21 06:34:22;;;;;;;16.70;7.75;;;;;;;;;;10367296;28;20398;-63
2023/02/21 06:39:23;;;;;;;20.50;8.05;;;;;;;;;;10350947;28;20217;-70
2023/02/21 06:44:24;;;;;;;12.20;8.68;;;;;;;;;;10363761;28;20041;-63
2023/02/21 06:49:24;;;;;;;16.60;8.90;;;;;;;;;;10360052;28;20049;-63
2023/02/21 06:54:25;;;;;;;16.15;9.65;;;;;;;;;;10361416;28;20068;-69
2023/02/21 06:59:26;;;;;;;29.80;10.00;;;;;;;;;;10363569;28;20141;-66
2023/02/21 07:04:26;;;;;;;23.77;11.57;;;;;;;;;;10356051;28;20064;-63
2023/02/21 07:09:27;;;;;;;38.05;12.70;;;;;;;;;;10366390;28;20029;-64
2023/02/21 07:14:27;;;;;;;19.13;12.73;;;;;;;;;;10358576;28;20030;-63
2023/02/21 07:19:28;;;;;;;21.52;12.25;;;;;;;;;;10365222;28;20040;-73
2023/02/21 07:24:28;;;;;;;29.05;13.00;;;;;;;;;;10365291;28;20231;-72
2023/02/21 07:29:29;;;;;;;20.88;12.30;;;;;;;;;;10357616;28;20040;-70
2023/02/21 07:34:30;;;;;;;22.90;13.40;;;;;;;;;;10366413;28;20030;-69
2023/02/21 07:39:30;;;;;;;19.45;13.32;;;;;;;;;;10365790;28;20050;-63
2023/02/21 07:44:31;;;;;;;20.80;12.82;;;;;;;;;;10365899;28;20421;-72
2023/02/21 07:49:37;;;;;;;23.40;13.07;;;;;;;;;;10365566;28;20037;-69
2023/02/21 07:54:38;;;;;;;20.73;13.55;;;;;;;;;;10365715;28;20022;-72
2023/02/21 07:59:38;;;;;;;20.67;13.00;;;;;;;;;;10366308;28;20018;-70
2023/02/21 08:04:40;;;;;;;21.27;13.85;;;;;;;;;;10365477;28;20438;-71
2023/02/21 08:09:41;;;;;;;21.75;13.27;;;;;;;;;;10365647;28;20025;-71
2023/02/21 08:14:41;;;;;;;18.30;13.10;;;;;;;;;;10365574;28;20497;-71
2023/02/21 08:19:42;;;;;;;17.98;13.00;;;;;;;;;;10365444;28;20022;-70
2023/02/21 08:24:42;;;;;;;18.80;13.60;;;;;;;;;;10365293;28;20034;-71
2023/02/21 08:29:43;;;;;;;18.58;13.18;;;;;;;;;;10356274;28;20030;-72
2023/02/21 08:34:46;;;;;;;22.40;14.15;;;;;;;;;;10368821;28;20080;-72
2023/02/21 08:39:48;;;;;;;21.30;14.07;;;;;;;;;;10372488;28;20552;-71
2023/02/21 08:44:49;;;;;;;19.10;13.65;;;;;;;;;;10371887;28;20113;-69
2023/02/21 08:49:49;;;;;;;19.55;13.63;;;;;;;;;;10372589;28;20041;-71
2023/02/21 08:54:50;;;;;;;22.90;14.85;;;;;;;;;;10371717;28;20239;-69
2023/02/21 08:59:50;;;;;;;19.30;14.48;;;;;;;;;;10371553;28;20409;-71
2023/02/21 09:04:52;;;;;;;23.27;15.23;;;;;;;;;;10370884;28;20397;-71
2023/02/21 09:09:52;;;;;;;24.52;14.80;;;;;;;;;;10371343;28;20022;-71
2023/02/21 09:14:53;;;;;;;21.55;14.88;;;;;;;;;;10370907;28;20436;-71
2023/02/21 09:19:53;;;;;;;19.70;14.75;;;;;;;;;;10370688;28;20500;-71
2023/02/21 09:24:54;;;;;;;20.52;14.40;;;;;;;;;;10370385;28;20080;-71
2023/02/21 09:29:55;;;;;;;23.08;15.05;;;;;;;;;;10361548;28;20030;-71
2023/02/21 09:34:55;;;;;;;22.67;14.68;;;;;;;;;;10370075;28;20030;-71
2023/02/21 09:39:56;;;;;;;22.50;16.08;;;;;;;;;;10369331;28;20033;-72
2023/02/21 09:44:58;;;;;;;24.23;14.07;;;;;;;;;;10368582;28;20125;-71
2023/02/21 09:50:05;;;;;;;21.98;15.82;;;;;;;;;;10369556;28;20477;-68
2023/02/21 09:55:34;;;;;;;18.33;13.95;;;;;;;;;;10368462;28;20070;-70
2023/02/21 10:00:37;;;;;;;21.95;15.77;;;;;;;;;;10365464;28;20052;-71
2023/02/21 10:05:47;;;;;;;20.80;14.55;;;;;;;;;;10368054;28;20092;-69
2023/02/21 10:10:57;;;;;;;21.30;15.15;;;;;;;;;;10368863;28;20500;-72
2023/02/21 10:16:22;;;;;;;19.05;15.48;;;;;;;;;;10367627;28;20029;-71
2023/02/21 10:21:34;;;;;;;21.10;15.27;;;;;;;;;;10362696;28;20050;-71
2023/02/21 10:26:41;;;;;;;21.63;15.13;;;;;;;;;;10368721;28;20036;-71
2023/02/21 10:31:43;;;;;;;22.27;15.90;;;;;;;;;;10359886;28;20112;-70
2023/02/21 10:36:44;;;;;;;22.08;14.98;;;;;;;;;;10366665;28;20103;-71
2023/02/21 10:41:45;;;;;;;18.75;14.48;;;;;;;;;;10367839;28;20099;-70
2023/02/21 10:46:57;;;;;;;19.17;14.88;;;;;;;;;;10366439;28;20041;-71
2023/02/21 10:52:15;;;;;;;22.63;15.05;;;;;;;;;;10366453;28;20017;-70
2023/02/21 10:57:16;;;;;;;19.50;15.35;;;;;;;;;;10366949;28;20030;-69
2023/02/21 11:02:32;;;;;;;19.67;14.95;;;;;;;;;;10365893;28;20030;-70
2023/02/21 11:07:34;;;;;;;19.83;14.82;;;;;;;;;;10366347;28;20221;-70
2023/02/21 11:12:34;;;;;;;20.15;13.85;;;;;;;;;;10366595;28;20485;-69
2023/02/21 11:17:35;;;;;;;19.27;14.80;;;;;;;;;;10366583;28;20029;-69
2023/02/21 11:22:41;;;;;;;22.25;15.73;;;;;;;;;;10366901;28;20288;-71
2023/02/21 11:27:43;;;;;;;23.13;15.93;;;;;;;;;;10361483;28;20410;-70
2023/02/21 11:32:54;;;;;;;18.90;15.27;;;;;;;;;;10374811;28;20064;-71
2023/02/21 11:37:56;;;;;;;23.45;15.25;;;;;;;;;;10365098;28;20042;-71
2023/02/21 11:43:26;;;;;;;21.40;15.77;;;;;;;;;;10366448;28;20030;-70
2023/02/21 11:48:36;;;;;;;19.95;14.25;;;;;;;;;;10365769;28;20466;-69
2023/02/21 11:53:42;;;;;;;22.75;15.63;;;;;;;;;;10365181;28;20030;-70
2023/02/21 11:59:25;;;;;;;23.75;15.98;;;;;;;;;;10366370;28;20033;-71
2023/02/21 12:04:51;;;;;;;21.73;15.77;;;;;;;;;;10353718;28;20037;-71
2023/02/21 12:10:22;;;;;;;24.25;15.70;;;;;;;;;;10369964;28;20034;-70
2023/02/21 12:15:45;;;;;;;21.63;15.32;;;;;;;;;;10373747;28;20026;-71
2023/02/21 12:20:59;;;;;;;21.05;15.30;;;;;;;;;;10371894;28;20124;-65
2023/02/21 12:26:38;;;;;;;21.52;14.88;;;;;;;;;;10371824;28;20121;-64
2023/02/21 12:31:48;;;;;;;23.70;15.50;;;;;;;;;;10363950;28;20025;-64
2023/02/21 12:37:07;;;;;;;23.73;15.68;;;;;;;;;;10360632;28;20153;-62
2023/02/21 12:42:24;;;;;;;;;;;;;;;;;;10372061;28;20029;-62
2023/02/21 12:47:34;;;;;;;21.42;14.75;;;;;;;;;;10365973;28;19917;-62
2023/02/21 12:52:48;;;;;;;24.00;15.68;;;;;;;;;;10369954;28;20033;-62
2023/02/21 12:57:57;;;;;;;22.40;16.17;;;;;;;;;;10370247;28;20025;-63
2023/02/21 13:02:57;;;;;;;;;;;;;;;;;;10365658;28;20025;-71
2023/02/21 13:08:10;;;;;;;22.07;14.70;;;;;;;;;;10366716;28;19924;-64
2023/02/21 13:13:34;;;;;;;22.98;15.95;;;;;;;;;;10366166;28;20401;-62
2023/02/21 13:18:58;;;;;;;24.00;15.50;;;;;;;;;;10370680;28;20068;-70
2023/02/21 13:24:56;;;;;;;21.25;14.77;;;;;;;;;;10369581;28;20116;-71
2023/02/21 13:30:22;;;;;;;;;;;;;;;;;;10366375;28;20176;-71
2023/02/21 13:35:50;;;;;;;20.08;14.73;;;;;;;;;;10369269;28;19937;-72
2023/02/21 13:41:08;;;;;;;23.77;15.45;;;;;;;;;;10367552;28;20117;-72
2023/02/21 13:46:41;;;;;;;19.75;14.02;;;;;;;;;;10362271;28;20473;-71
2023/02/21 13:51:51;;;;;;;21.30;15.07;;;;;;;;;;10353433;28;20069;-71
2023/02/21 13:56:52;;;;;;;23.45;16.13;;;;;;;;;;10368284;28;20034;-70
2023/02/21 14:02:29;;;;;;;22.02;14.43;;;;;;;;;;10358016;28;20030;-71
2023/02/21 14:07:46;;;;;;;19.23;14.13;;;;;;;;;;10366390;28;20038;-71
2023/02/21 14:12:55;;;;;;;22.10;14.75;;;;;;;;;;10365505;28;20022;-71
2023/02/21 14:17:58;;;;;;;20.75;14.27;;;;;;;;;;10365680;28;20117;-63
2023/02/21 14:22:58;;;;;;;19.52;14.68;;;;;;;;;;10366652;28;20037;-62
2023/02/21 14:27:59;;;;;;;23.58;14.38;;;;;;;;;;10360120;28;20032;-63
2023/02/21 14:33:29;;;;;;;21.35;15.35;;;;;;;;;;10375203;28;20034;-62
2023/02/21 14:38:39;;;;;;;24.75;15.43;;;;;;;;;;10355704;28;20099;-62
2023/02/21 14:44:13;;;;;;;25.25;16.40;;;;;;;;;;10356481;28;20425;-63
2023/02/21 14:49:43;;;;;;;25.83;16.67;;;;;;;;;;10367260;28;20057;-64
2023/02/21 14:55:08;;;;;;;24.10;16.15;;;;;;;;;;10364196;28;20263;-67
2023/02/21 15:00:15;;;;;;;23.02;16.77;;;;;;;;;;10364885;28;20482;-64
2023/02/21 15:05:20;;;;;;;22.33;15.95;;;;;;;;;;10365855;28;20573;-66
2023/02/21 15:10:24;;;;;;;26.90;16.65;;;;;;;;;;10366567;28;20478;-64
2023/02/21 15:15:30;;;;;;;24.23;15.98;;;;;;;;;;10366258;28;20458;-62
2023/02/21 15:20:36;;;;;;;23.05;16.30;;;;;;;;;;10364803;28;20034;-71
2023/02/21 15:25:36;;;;;;;24.92;16.75;;;;;;;;;;10366129;28;20034;-71
2023/02/21 15:30:41;;;;;;;23.65;16.05;;;;;;;;;;10362031;28;20022;-71
2023/02/21 15:35:55;;;;;;;23.95;16.33;;;;;;;;;;10365907;28;20046;-71
2023/02/21 15:41:07;;;;;;;24.08;16.70;;;;;;;;;;10364729;28;20414;-71
2023/02/21 15:46:16;;;;;;;24.10;15.82;;;;;;;;;;10374222;28;20129;-71
2023/02/21 15:51:17;;;;;;;23.35;16.45;;;;;;;;;;10373413;28;20017;-71
2023/02/21 15:56:23;;;;;;;25.02;16.95;;;;;;;;;;10372914;28;20029;-69
2023/02/21 16:01:24;;;;;;;26.77;17.17;;;;;;;;;;10373452;28;20021;-71
2023/02/21 16:06:27;;;;;;;23.10;15.05;;;;;;;;;;10373452;28;20038;-66
2023/02/21 16:12:21;;;;;;;24.65;15.57;;;;;;;;;;10373781;28;20395;-72
2023/02/21 16:17:28;;;;;;;23.08;15.05;;;;;;;;;;10285686;28;20553;-70
2023/02/21 16:22:37;;;;;;;23.10;15.43;;;;;;;;;;10306592;28;20035;-70
2023/02/21 16:27:41;;;;;;;19.83;15.15;;;;;;;;;;10300658;28;20035;-71
2023/02/21 16:32:45;;;;;;;23.77;15.38;;;;;;;;;;10292717;28;20081;-69
2023/02/21 16:37:52;;;;;;;20.92;15.13;;;;;;;;;;10271397;28;20058;-70
2023/02/21 16:42:55;;;;;;;22.60;15.07;;;;;;;;;;10318791;28;20125;-70
2023/02/21 16:48:05;;;;;;;20.88;15.38;;;;;;;;;;10316971;28;20117;-69
2023/02/21 16:53:11;;;;;;;24.30;16.13;;;;;;;;;;10368764;28;20030;-70
2023/02/21 16:58:22;;;;;;;24.90;16.25;;;;;;;;;;10371532;28;20059;-71
2023/02/21 17:03:24;;;;;;;21.38;16.00;;;;;;;;;;10372117;28;20034;-70
2023/02/21 17:08:26;;;;;;;20.98;15.88;;;;;;;;;;10371072;28;20026;-71
2023/02/21 17:13:27;;;;;;;24.88;16.35;;;;;;;;;;10371080;28;20052;-71
2023/02/21 17:18:28;;;;;;;23.10;16.58;;;;;;;;;;10371388;28;20028;-63
2023/02/21 17:23:29;;;;;;;22.73;16.08;;;;;;;;;;10370588;28;20018;-63
2023/02/21 17:28:29;;;;;;;23.73;16.45;;;;;;;;;;10361945;28;20437;-64
2023/02/21 17:33:30;;;;;;;22.45;15.52;;;;;;;;;;10369649;28;20508;-63
2023/02/21 17:38:32;;;;;;;23.63;16.88;;;;;;;;;;10367777;28;20052;-68
2023/02/21 17:43:33;;;;;;;21.42;15.82;;;;;;;;;;10363324;28;20057;-63
2023/02/21 17:48:33;;;;;;;22.30;14.93;;;;;;;;;;10361379;28;20033;-63
2023/02/21 17:53:34;;;;;;;23.13;16.30;;;;;;;;;;10365141;28;20022;-62
2023/02/21 17:58:34;;;;;;;26.23;15.73;;;;;;;;;;10367568;28;20018;-64
2023/02/21 18:03:36;;;;;;;23.65;15.65;;;;;;;;;;10368693;28;20080;-63
2023/02/21 18:08:36;;;;;;;22.75;14.88;;;;;;;;;;10366587;28;20038;-63
2023/02/21 18:13:37;;;;;;;28.73;15.65;;;;;;;;;;10366098;28;20378;-62
2023/02/21 18:18:38;;;;;;;23.45;16.15;;;;;;;;;;10366399;28;20434;-67
2023/02/21 18:23:43;;;;;;;26.58;14.70;;;;;;;;;;10363870;28;20034;-70
2023/02/21 18:28:43;;;;;;;23.83;15.80;;;;;;;;;;10355065;28;20084;-69
2023/02/21 18:33:44;;;;;;;20.75;14.55;;;;;;;;;;10365592;28;20084;-69
2023/02/21 18:38:45;;;;;;;19.27;13.52;;;;;;;;;;10366587;28;20520;-69
2023/02/21 18:43:45;;;;;;;20.70;15.00;;;;;;;;;;10367390;28;20045;-69
2023/02/21 18:48:49;;;;;;;23.80;15.13;;;;;;;;;;10367462;28;20029;-70
2023/02/21 18:53:50;;;;;;;24.55;15.25;;;;;;;;;;10366250;28;20030;-67
2023/02/21 18:58:50;;;;;;;48.38;15.73;;;;;;;;;;10365811;28;20412;-67
2023/02/21 19:03:52;;;;;;;29.70;16.27;;;;;;;;;;10366403;28;20029;-67
2023/02/21 19:08:53;;;;;;;27.25;15.27;;;;;;;;;;10348748;28;20084;-67
2023/02/21 19:13:54;;;;;;;31.77;14.93;;;;;;;;;;10366904;28;20049;-67
2023/02/21 19:18:55;;;;;;;22.58;14.70;;;;;;;;;;10366367;28;20072;-64
2023/02/21 19:23:56;;;;;;;21.27;14.40;;;;;;;;;;10364853;28;20433;-67
2023/02/21 19:28:57;;;;;;;27.92;14.35;;;;;;;;;;10362942;28;20032;-68
2023/02/21 19:33:58;;;;;;;24.88;13.57;;;;;;;;;;10363842;28;20289;-66
2023/02/21 19:38:58;;;;;;;21.48;14.05;;;;;;;;;;10366461;28;20054;-64
2023/02/21 19:43:59;;;;;;;26.42;14.80;;;;;;;;;;10366565;28;20026;-65
2023/02/21 19:49:00;;;;;;;22.10;13.90;;;;;;;;;;10366026;28;20397;-67
2023/02/21 19:54:00;;;;;;;22.23;14.23;;;;;;;;;;10366208;28;20038;-65
2023/02/21 19:59:01;;;;;;;27.17;14.95;;;;;;;;;;10365893;28;20470;-64
2023/02/21 20:04:02;;;;;;;22.45;13.32;;;;;;;;;;10365729;28;20026;-68
2023/02/21 20:09:06;;;;;;;19.38;13.13;;;;;;;;;;10365550;28;20351;-69
2023/02/21 20:14:10;;;;;;;22.25;14.63;;;;;;;;;;10366276;28;20092;-65
2023/02/21 20:19:11;;;;;;;20.38;13.43;;;;;;;;;;10365828;28;20466;-68
2023/02/21 20:24:12;;;;;;;19.77;14.27;;;;;;;;;;10365882;28;20018;-68
2023/02/21 20:29:13;;;;;;;20.75;13.82;;;;;;;;;;10358310;28;20022;-68
2023/02/21 20:34:14;;;;;;;21.00;13.75;;;;;;;;;;10372812;28;20072;-68
2023/02/21 20:39:30;;;;;;;20.90;13.65;;;;;;;;;;10384327;28;20405;-68
2023/02/21 20:44:37;;;;;;;24.88;14.13;;;;;;;;;;10372397;28;20060;-68
2023/02/21 20:49:37;;;;;;;18.83;13.85;;;;;;;;;;10372750;28;20385;-68
2023/02/21 20:54:39;;;;;;;17.55;13.95;;;;;;;;;;10370451;28;20065;-67
2023/02/21 20:59:40;;;;;;;20.20;13.30;;;;;;;;;;10371476;28;20038;-68
2023/02/21 21:04:42;;;;;;;20.83;13.77;;;;;;;;;;10370275;28;20293;-66
2023/02/21 21:09:43;;;;;;;19.98;14.05;;;;;;;;;;10371842;28;20017;-68
2023/02/21 21:14:47;;;;;;;20.17;14.45;;;;;;;;;;10371145;28;20474;-68
2023/02/21 21:19:48;;;;;;;20.33;12.88;;;;;;;;;;10369057;28;20038;-63
2023/02/21 21:24:51;;;;;;;18.08;13.13;;;;;;;;;;10367860;28;20109;-63
2023/02/21 21:29:52;;;;;;;21.05;14.32;;;;;;;;;;10364477;28;20034;-66
2023/02/21 21:34:56;;;;;;;19.70;13.63;;;;;;;;;;10370177;28;20025;-68
2023/02/21 21:39:57;;;;;;;19.17;13.90;;;;;;;;;;10369821;28;20022;-66
2023/02/21 21:44:57;;;;;;;19.83;14.65;;;;;;;;;;10370454;28;20382;-68
2023/02/21 21:50:01;;;;;;;22.58;13.90;;;;;;;;;;10370405;28;20093;-70
2023/02/21 21:55:01;;;;;;;20.85;14.52;;;;;;;;;;10369511;28;20470;-70
2023/02/21 22:00:12;;;;;;;21.85;14.70;;;;;;;;;;10369958;28;20026;-64
2023/02/21 22:05:13;;;;;;;19.38;14.38;;;;;;;;;;10369194;28;20440;-70
2023/02/21 22:10:14;;;;;;;19.70;13.80;;;;;;;;;;10367746;28;20033;-68
2023/02/21 22:15:21;;;;;;;21.65;14.43;;;;;;;;;;10363481;28;20026;-66
2023/02/21 22:20:27;;;;;;;20.98;15.70;;;;;;;;;;10368632;28;20121;-63
2023/02/21 22:25:29;;;;;;;19.20;14.50;;;;;;;;;;10368607;28;20025;-66
2023/02/21 22:30:30;;;;;;;21.88;13.50;;;;;;;;;;10363608;28;20084;-67
2023/02/21 22:35:31;;;;;;;21.80;15.00;;;;;;;;;;10365870;28;20061;-69
2023/02/21 22:40:34;;;;;;;19.25;14.23;;;;;;;;;;10367926;28;20113;-65
2023/02/21 22:45:36;;;;;;;18.85;14.40;;;;;;;;;;10366360;28;20056;-68
2023/02/21 22:50:38;;;;;;;24.42;15.80;;;;;;;;;;10364632;28;20034;-64
2023/02/21 22:55:38;;;;;;;24.08;14.65;;;;;;;;;;10357695;28;20076;-66
2023/02/21 23:00:39;;;;;;;26.73;14.00;;;;;;;;;;10358839;28;20030;-66
2023/02/21 23:05:43;;;;;;;23.02;15.25;;;;;;;;;;10363568;28;20040;-66
2023/02/21 23:10:44;;;;;;;17.77;14.05;;;;;;;;;;10337822;28;20494;-66
2023/02/21 23:15:46;;;;;;;20.80;14.05;;;;;;;;;;10334688;28;20482;-66
2023/02/21 23:20:53;;;;;;;19.40;13.30;;;;;;;;;;10339992;28;20026;-66
2023/02/21 23:25:57;;;;;;;21.60;14.30;;;;;;;;;;10329153;28;20478;-65
2023/02/21 23:30:58;;;;;;;18.92;13.63;;;;;;;;;;10352654;28;20022;-66
2023/02/21 23:35:58;;;;;;;20.83;13.43;;;;;;;;;;10362890;28;20046;-66
2023/02/21 23:41:00;;;;;;;22.08;14.18;;;;;;;;;;10363106;28;20532;-64
2023/02/21 23:46:06;;;;;;;16.58;13.13;;;;;;;;;;10364029;28;20429;-64
2023/02/21 23:51:07;;;;;;;20.20;14.45;;;;;;;;;;10366346;28;20510;-65
2023/02/21 23:56:11;;;;;;;19.05;13.25;;;;;;;;;;10366191;28;20029;-64
